Hartford, Connecticut
Traffic Map
Current Weather Conditions
Hartford, Connecticut
Overcast
Overcast
51°
Feels Like: 51°
Wind Chill: 51° Ceiling: 800
Heat Index: 51° Visibility: 7mi
Dew Point: 50° Wind: 10mph
Humidity: 96% Direction: 10° (N)
Pressure: 30.12in Gusts: 0mph
Raw Report DataKHFD 280453Z AUTO 01009KT 7SM OVC008 11/10 A3012 RMK AO2 CIG 006V011 SLP200 T01060100 402170106
Traffic Incident Summary
Active as of:
Severity:
Category:
InformationThere was an issue retrieving the traffic information for this location. Please try a different location or try again shortly.
Advertisements